createdAt,value
2022-10-17T00:01:12.508Z,13.84
2022-10-17T00:03:41.356Z,13.79
2022-10-17T00:06:15.246Z,13.72
2022-10-17T00:08:44.671Z,13.68
2022-10-17T00:11:24.208Z,13.64
2022-10-17T00:13:56.078Z,13.61
2022-10-17T00:16:36.725Z,13.58
2022-10-17T00:19:07.396Z,13.56
2022-10-17T00:21:35.662Z,13.54
2022-10-17T00:24:04.358Z,13.48
2022-10-17T00:26:33.008Z,13.40
2022-10-17T00:29:01.589Z,13.33
2022-10-17T00:31:29.876Z,13.29
2022-10-17T00:33:58.082Z,13.25
2022-10-17T00:36:27.053Z,13.22
2022-10-17T00:38:59.777Z,13.21
2022-10-17T00:41:32.829Z,13.19
2022-10-17T00:44:24.490Z,13.19
2022-10-17T00:46:53.467Z,13.18
2022-10-17T00:49:25.118Z,13.18
2022-10-17T00:51:58.020Z,13.18
2022-10-17T00:54:35.170Z,13.18
2022-10-17T00:57:04.678Z,13.16
2022-10-17T00:59:36.250Z,13.12
2022-10-17T01:02:10.168Z,13.11
2022-10-17T01:04:40.712Z,13.12
2022-10-17T01:07:10.286Z,13.13
2022-10-17T01:09:40.864Z,13.14
2022-10-17T01:12:23.883Z,13.14
2022-10-17T01:15:26.339Z,13.15
2022-10-17T01:18:40.412Z,13.16
2022-10-17T01:21:38.794Z,13.13
2022-10-17T01:24:33.262Z,13.11
2022-10-17T01:27:37.585Z,13.10
2022-10-17T01:30:35.210Z,13.08
2022-10-17T01:33:19.810Z,13.05
2022-10-17T01:36:07.483Z,13.02
2022-10-17T01:39:11.343Z,13.00
2022-10-17T01:41:58.397Z,12.95
2022-10-17T01:44:56.951Z,12.91
2022-10-17T01:47:31.941Z,12.88
2022-10-17T01:50:14.187Z,12.84
2022-10-17T01:53:13.422Z,12.80
2022-10-17T01:55:45.972Z,12.76
2022-10-17T01:58:26.858Z,12.73
2022-10-17T02:00:58.141Z,12.72
2022-10-17T02:03:28.390Z,12.69
2022-10-17T02:05:56.691Z,12.66
2022-10-17T02:08:50.275Z,12.63
2022-10-17T02:11:24.653Z,12.59
2022-10-17T02:14:18.019Z,12.55
2022-10-17T02:17:08.455Z,12.52
2022-10-17T02:20:07.466Z,12.48
2022-10-17T02:22:58.667Z,12.44
2022-10-17T02:25:51.311Z,12.40
2022-10-17T02:28:25.609Z,12.35
2022-10-17T02:31:00.927Z,12.32
2022-10-17T02:33:36.478Z,12.28
2022-10-17T02:36:15.119Z,12.24
2022-10-17T02:38:45.711Z,12.22
2022-10-17T02:41:18.133Z,12.20
2022-10-17T02:43:50.490Z,12.19
2022-10-17T02:46:23.334Z,12.18
2022-10-17T02:49:01.819Z,12.16
2022-10-17T02:51:52.467Z,12.14
2022-10-17T02:54:31.812Z,12.13
2022-10-17T02:57:14.976Z,12.11
2022-10-17T02:59:45.548Z,12.09
2022-10-17T03:02:13.762Z,12.07
2022-10-17T03:04:47.094Z,12.05
2022-10-17T03:07:15.378Z,12.04
2022-10-17T03:09:43.601Z,12.01
2022-10-17T03:12:11.807Z,11.98
2022-10-17T03:14:40.007Z,11.96
2022-10-17T03:17:08.215Z,11.93
2022-10-17T03:19:36.398Z,11.92
2022-10-17T03:22:04.607Z,11.90
2022-10-17T03:24:32.816Z,11.87
2022-10-17T03:27:01.051Z,11.86
2022-10-17T03:29:29.487Z,11.83
2022-10-17T03:31:57.858Z,11.81
2022-10-17T03:34:26.062Z,11.78
2022-10-17T03:36:54.319Z,11.76
2022-10-17T03:39:22.733Z,11.73
2022-10-17T03:41:50.971Z,11.71
2022-10-17T03:44:19.142Z,11.68
2022-10-17T03:46:47.390Z,11.68
2022-10-17T03:49:15.603Z,11.68
2022-10-17T03:51:43.786Z,11.67
2022-10-17T03:54:12.024Z,11.68
2022-10-17T03:56:40.439Z,11.68
2022-10-17T03:59:14.485Z,11.68
2022-10-17T04:01:42.968Z,11.69
2022-10-17T04:04:11.286Z,11.70
2022-10-17T04:06:39.567Z,11.70
2022-10-17T04:09:08.095Z,11.70
2022-10-17T04:11:36.473Z,11.70
2022-10-17T04:14:04.862Z,11.69
2022-10-17T04:16:33.134Z,11.68
2022-10-17T04:19:01.767Z,11.67
2022-10-17T04:21:30.456Z,11.65
2022-10-17T04:24:00.744Z,11.63
2022-10-17T04:26:29.043Z,11.61
2022-10-17T04:28:57.503Z,11.59
2022-10-17T04:31:25.705Z,11.57
2022-10-17T04:33:53.868Z,11.56
2022-10-17T04:36:23.058Z,11.54
2022-10-17T04:38:51.316Z,11.53
2022-10-17T04:41:19.758Z,11.51
2022-10-17T04:43:50.981Z,11.49
2022-10-17T04:46:19.717Z,11.47
2022-10-17T04:48:47.888Z,11.45
2022-10-17T04:51:20.732Z,11.45
2022-10-17T04:53:51.673Z,11.43
2022-10-17T04:56:23.450Z,11.42
2022-10-17T04:58:52.260Z,11.40
2022-10-17T05:01:23.565Z,11.39
2022-10-17T05:03:53.542Z,11.38
2022-10-17T05:06:25.182Z,11.37
2022-10-17T05:08:53.753Z,11.37
2022-10-17T05:11:26.054Z,11.36
2022-10-17T05:13:57.949Z,11.36
2022-10-17T05:16:27.900Z,11.35
2022-10-17T05:18:59.060Z,11.35
2022-10-17T05:21:29.945Z,11.35
2022-10-17T05:23:58.693Z,11.36
2022-10-17T05:26:26.994Z,11.36
2022-10-17T05:28:55.231Z,11.36
2022-10-17T05:31:23.523Z,11.36
2022-10-17T05:33:51.860Z,11.37
2022-10-17T05:36:20.214Z,11.38
2022-10-17T05:38:52.214Z,11.40
2022-10-17T05:41:20.964Z,11.43
2022-10-17T05:43:50.325Z,11.48
2022-10-17T05:46:18.685Z,11.52
2022-10-17T05:48:46.994Z,11.57
2022-10-17T05:51:15.203Z,11.63
2022-10-17T05:53:43.457Z,11.68
2022-10-17T05:56:13.322Z,11.73
2022-10-17T05:58:50.328Z,11.78
2022-10-17T06:01:20.307Z,11.83
2022-10-17T06:03:48.639Z,11.89
2022-10-17T06:06:18.235Z,11.94
2022-10-17T06:08:46.593Z,12.00
2022-10-17T06:11:15.431Z,12.06
2022-10-17T06:13:43.743Z,12.13
2022-10-17T06:16:12.010Z,12.19
2022-10-17T06:18:40.237Z,12.25
2022-10-17T06:21:11.724Z,12.32
2022-10-17T06:23:39.981Z,12.39
2022-10-17T06:26:08.804Z,12.45
2022-10-17T06:28:37.237Z,12.52
2022-10-17T06:31:12.529Z,12.58
2022-10-17T06:33:40.855Z,12.66
2022-10-17T06:36:13.156Z,12.73
2022-10-17T06:38:41.435Z,12.81
2022-10-17T06:41:15.917Z,12.89
2022-10-17T06:43:48.990Z,12.99
2022-10-17T06:46:19.142Z,13.07
2022-10-17T06:48:47.321Z,13.16
2022-10-17T06:51:15.550Z,13.24
2022-10-17T06:53:43.722Z,13.33
2022-10-17T06:56:11.969Z,13.41
2022-10-17T06:58:40.715Z,13.50
2022-10-17T07:01:12.535Z,13.57
2022-10-17T07:03:41.302Z,13.67
2022-10-17T07:06:13.422Z,13.76
2022-10-17T07:08:46.147Z,13.85
2022-10-17T07:11:17.792Z,13.96
2022-10-17T07:13:46.603Z,14.05
2022-10-17T07:16:16.029Z,14.14
2022-10-17T07:18:44.434Z,14.25
2022-10-17T07:21:12.680Z,14.35
2022-10-17T07:23:41.531Z,14.45
2022-10-17T07:26:13.042Z,14.55
2022-10-17T07:28:44.622Z,14.65
2022-10-17T07:31:17.394Z,14.77
2022-10-17T07:36:19.385Z,14.98
2022-10-17T07:38:47.619Z,15.10
2022-10-17T07:41:19.284Z,15.22
2022-10-17T07:43:49.932Z,15.34
2022-10-17T07:46:18.325Z,15.45
2022-10-17T07:48:46.646Z,15.58
2022-10-17T07:51:16.851Z,15.71
2022-10-17T07:53:48.069Z,15.85
2022-10-17T07:56:17.308Z,16.00
2022-10-17T07:58:45.621Z,16.16
2022-10-17T08:01:15.543Z,16.30
2022-10-17T08:03:46.178Z,16.45
2022-10-17T08:06:15.632Z,16.60
2022-10-17T08:08:44.476Z,16.73
2022-10-17T08:11:14.769Z,16.87
2022-10-17T08:13:43.626Z,17.04
2022-10-17T08:16:13.552Z,17.22
2022-10-17T08:18:43.413Z,17.42
2022-10-17T08:21:13.495Z,17.63
2022-10-17T08:23:42.097Z,17.84
2022-10-17T08:26:13.351Z,18.06
2022-10-17T08:28:41.760Z,18.28
2022-10-17T08:31:13.892Z,18.50
2022-10-17T08:33:42.874Z,18.72
2022-10-17T08:36:16.612Z,18.90
2022-10-17T08:38:47.970Z,19.12
2022-10-17T08:41:34.920Z,19.33
2022-10-17T08:44:18.728Z,19.56
2022-10-17T08:46:52.111Z,19.82
2022-10-17T08:49:47.604Z,20.04
2022-10-17T08:52:54.106Z,20.33
2022-10-17T08:55:46.246Z,20.68
2022-10-17T08:58:26.114Z,20.98
2022-10-17T09:01:19.770Z,21.26
2022-10-17T09:04:03.425Z,21.54
2022-10-17T09:07:25.166Z,21.86
2022-10-17T09:10:17.211Z,22.21
2022-10-17T09:13:18.634Z,22.50
2022-10-17T09:16:40.729Z,22.78
2022-10-17T09:19:25.789Z,23.10
2022-10-17T09:22:04.476Z,23.32
2022-10-17T09:24:51.006Z,23.52
2022-10-17T09:27:48.770Z,23.77
2022-10-17T09:31:04.343Z,24.02
2022-10-17T09:33:59.985Z,24.35
2022-10-17T09:36:34.167Z,24.62
2022-10-17T09:39:33.562Z,24.86
2022-10-17T09:42:03.324Z,25.14
2022-10-17T09:44:35.544Z,25.36
2022-10-17T09:47:25.796Z,25.59
2022-10-17T09:49:54.638Z,25.82
2022-10-17T09:52:42.394Z,26.00
2022-10-17T09:55:35.342Z,26.25
2022-10-17T09:58:07.369Z,26.49
2022-10-17T10:00:46.431Z,26.72
2022-10-17T10:03:27.571Z,27.00
2022-10-17T10:06:19.091Z,27.36
2022-10-17T10:09:04.997Z,27.57
2022-10-17T10:11:55.112Z,27.72
2022-10-17T10:14:37.550Z,27.88
2022-10-17T10:17:41.709Z,28.11
2022-10-17T10:20:35.156Z,28.39
2022-10-17T10:23:17.334Z,28.56
2022-10-17T10:25:56.025Z,28.78
2022-10-17T10:28:36.619Z,28.99
2022-10-17T10:31:08.524Z,29.18
2022-10-17T10:33:42.185Z,29.29
2022-10-17T10:36:10.562Z,29.50
2022-10-17T10:38:42.517Z,29.65
2022-10-17T10:41:11.754Z,29.70
2022-10-17T10:43:46.764Z,29.79
2022-10-17T10:46:27.436Z,30.01
2022-10-17T10:49:01.661Z,30.24
2022-10-17T10:51:45.826Z,30.45
2022-10-17T10:54:28.777Z,30.55
2022-10-17T10:57:03.435Z,30.65
2022-10-17T10:59:47.530Z,30.75
2022-10-17T11:02:47.595Z,30.86
2022-10-17T11:05:40.559Z,31.00
2022-10-17T11:08:26.728Z,31.18
2022-10-17T11:11:34.610Z,31.27
2022-10-17T11:14:53.504Z,31.39
2022-10-17T11:17:45.385Z,31.50
2022-10-17T11:21:03.452Z,31.73
2022-10-17T11:23:46.876Z,31.94
2022-10-17T11:26:28.884Z,32.02
2022-10-17T11:29:02.246Z,32.08
2022-10-17T11:31:43.723Z,32.05
2022-10-17T11:34:20.694Z,32.03
2022-10-17T11:36:54.954Z,32.05
2022-10-17T11:39:37.706Z,32.08
2022-10-17T11:42:12.912Z,32.20
2022-10-17T11:44:42.926Z,32.24
2022-10-17T11:47:48.899Z,32.38
2022-10-17T11:53:50.339Z,32.74
2022-10-17T11:56:33.007Z,32.94
2022-10-17T11:59:38.434Z,33.16
2022-10-17T12:02:51.156Z,33.32
2022-10-17T12:05:46.565Z,33.45
2022-10-17T12:08:30.464Z,33.70
2022-10-17T12:11:18.946Z,33.82
2022-10-17T12:13:54.568Z,33.99
2022-10-17T12:16:23.419Z,34.23
2022-10-17T12:19:00.712Z,34.35
2022-10-17T12:21:55.882Z,34.46
2022-10-17T12:24:42.311Z,34.60
2022-10-17T12:27:36.179Z,34.74
2022-10-17T12:30:26.392Z,34.76
2022-10-17T12:33:11.442Z,34.75
2022-10-17T12:35:39.915Z,34.83
2022-10-17T12:38:21.663Z,35.00
2022-10-17T12:40:53.706Z,35.10
2022-10-17T12:43:27.798Z,35.12
2022-10-17T12:46:04.975Z,35.22
2022-10-17T12:48:36.283Z,35.26
2022-10-17T12:51:35.184Z,35.32
2022-10-17T12:54:15.124Z,35.33
2022-10-17T12:56:49.485Z,35.25
2022-10-17T12:59:28.527Z,35.27
2022-10-17T13:02:03.509Z,35.26
2022-10-17T13:04:32.102Z,35.27
2022-10-17T13:07:01.395Z,35.28
2022-10-17T13:09:38.745Z,35.29
2022-10-17T13:12:18.685Z,35.31
2022-10-17T13:14:50.315Z,35.34
2022-10-17T13:17:30.698Z,35.32
2022-10-17T13:19:59.030Z,35.33
2022-10-17T13:22:33.075Z,35.34
2022-10-17T13:25:17.486Z,35.39
2022-10-17T13:27:47.160Z,35.31
2022-10-17T13:30:32.823Z,35.23
2022-10-17T13:33:03.275Z,35.23
2022-10-17T13:38:34.891Z,35.35
2022-10-17T13:41:34.676Z,35.53
2022-10-17T13:44:11.660Z,35.68
2022-10-17T13:46:41.389Z,35.74
2022-10-17T13:49:34.162Z,35.82
2022-10-17T13:52:06.339Z,35.88
2022-10-17T13:54:40.130Z,36.02
2022-10-17T13:57:28.258Z,36.16
2022-10-17T14:00:00.878Z,36.30
2022-10-17T14:02:32.606Z,36.47
2022-10-17T14:05:17.264Z,36.52
2022-10-17T14:08:12.467Z,36.48
2022-10-17T14:10:43.892Z,36.51
2022-10-17T14:13:28.789Z,36.73
2022-10-17T14:16:03.064Z,36.89
2022-10-17T14:18:36.599Z,37.02
2022-10-17T14:24:23.351Z,37.30
2022-10-17T14:26:59.507Z,37.47
2022-10-17T14:29:31.965Z,37.57
2022-10-17T14:32:08.690Z,37.71
2022-10-17T14:34:40.690Z,37.83
2022-10-17T14:37:32.375Z,37.87
2022-10-17T14:40:02.962Z,37.93
2022-10-17T14:42:31.662Z,38.01
2022-10-17T14:45:12.555Z,38.03
2022-10-17T14:47:44.188Z,38.10
2022-10-17T14:50:12.806Z,38.11
2022-10-17T14:52:43.079Z,38.15
2022-10-17T14:55:27.366Z,38.18
2022-10-17T14:57:56.311Z,38.11
2022-10-17T15:00:25.761Z,38.01
2022-10-17T15:02:55.732Z,37.92
2022-10-17T15:05:25.030Z,37.76
2022-10-17T15:07:53.732Z,37.39
2022-10-17T15:10:34.551Z,36.89
2022-10-17T15:13:26.785Z,36.47
2022-10-17T15:15:52.599Z,35.90
2022-10-17T15:18:20.938Z,35.23
2022-10-17T15:20:55.381Z,34.51
2022-10-17T15:23:33.254Z,33.74
2022-10-17T15:26:01.986Z,33.03
2022-10-17T15:28:30.369Z,32.34
2022-10-17T15:30:58.618Z,31.76
2022-10-17T15:33:27.136Z,31.15
2022-10-17T15:35:55.616Z,30.56
2022-10-17T15:38:23.951Z,30.00
2022-10-17T15:40:52.211Z,29.48
2022-10-17T15:43:22.924Z,29.00
2022-10-17T15:45:51.173Z,28.54
2022-10-17T15:48:28.369Z,28.07
2022-10-17T15:50:56.822Z,27.58
2022-10-17T15:53:25.069Z,27.11
2022-10-17T15:55:53.498Z,26.65
2022-10-17T15:58:21.859Z,26.19
2022-10-17T16:00:50.274Z,25.75
2022-10-17T16:03:18.568Z,25.35
2022-10-17T16:05:46.934Z,25.00
2022-10-17T16:08:15.319Z,24.64
2022-10-17T16:10:44.196Z,24.31
2022-10-17T16:13:18.606Z,24.01
2022-10-17T16:15:47.182Z,23.69
2022-10-17T16:18:15.569Z,23.35
2022-10-17T16:20:43.860Z,23.03
2022-10-17T16:23:14.368Z,22.71
2022-10-17T16:25:42.686Z,22.39
2022-10-17T16:28:12.040Z,22.11
2022-10-17T16:30:46.108Z,21.82
2022-10-17T16:33:14.683Z,21.52
2022-10-17T16:35:43.115Z,21.23
2022-10-17T16:38:11.539Z,20.97
2022-10-17T16:40:40.331Z,20.73
2022-10-17T16:43:14.923Z,20.50
2022-10-17T16:45:43.328Z,20.29
2022-10-17T16:48:12.280Z,20.08
2022-10-17T16:50:40.687Z,19.89
2022-10-17T16:53:09.004Z,19.71
2022-10-17T16:55:37.298Z,19.56
2022-10-17T16:58:07.029Z,19.39
2022-10-17T17:00:35.716Z,19.25
2022-10-17T17:03:04.604Z,19.11
2022-10-17T17:05:32.949Z,18.98
2022-10-17T17:08:03.424Z,18.86
2022-10-17T17:10:31.702Z,18.75
2022-10-17T17:13:01.669Z,18.66
2022-10-17T17:15:30.410Z,18.59
2022-10-17T17:18:02.683Z,18.51
2022-10-17T17:20:34.035Z,18.44
2022-10-17T17:23:02.225Z,18.36
2022-10-17T17:25:30.523Z,18.30
2022-10-17T17:27:58.855Z,18.23
2022-10-17T17:30:27.356Z,18.18
2022-10-17T17:32:56.135Z,18.12
2022-10-17T17:35:24.351Z,18.02
2022-10-17T17:37:52.594Z,17.98
2022-10-17T17:40:20.856Z,17.95
2022-10-17T17:42:49.138Z,17.91
2022-10-17T17:45:17.583Z,17.83
2022-10-17T17:47:45.898Z,17.79
2022-10-17T17:50:14.181Z,17.75
2022-10-17T17:52:45.576Z,17.69
2022-10-17T17:55:13.940Z,17.65
2022-10-17T17:57:42.183Z,17.61
2022-10-17T18:00:14.807Z,17.61
2022-10-17T18:02:44.562Z,17.64
2022-10-17T18:05:13.738Z,17.66
2022-10-17T18:07:42.510Z,17.65
2022-10-17T18:12:43.958Z,17.61
2022-10-17T18:15:13.266Z,17.59
2022-10-17T18:17:41.815Z,17.57
2022-10-17T18:20:10.724Z,17.51
2022-10-17T18:22:39.412Z,17.45
2022-10-17T18:25:11.875Z,17.39
2022-10-17T18:27:40.251Z,17.32
2022-10-17T18:30:09.276Z,17.26
2022-10-17T18:32:38.447Z,17.23
2022-10-17T18:35:09.339Z,17.23
2022-10-17T18:37:37.903Z,17.30
2022-10-17T18:40:07.321Z,17.39
2022-10-17T18:42:35.625Z,17.50
2022-10-17T18:45:06.301Z,17.62
2022-10-17T18:47:34.621Z,17.72
2022-10-17T18:50:07.119Z,17.79
2022-10-17T18:52:36.133Z,17.87
2022-10-17T18:55:04.987Z,17.93
2022-10-17T18:57:33.271Z,17.97
2022-10-17T19:00:02.060Z,18.00
2022-10-17T19:02:34.296Z,18.02
2022-10-17T19:05:04.231Z,18.03
2022-10-17T19:07:32.625Z,18.06
2022-10-17T19:10:01.598Z,18.10
2022-10-17T19:12:29.893Z,18.16
2022-10-17T19:14:58.215Z,18.24
2022-10-17T19:17:26.526Z,18.28
2022-10-17T19:19:55.249Z,18.33
2022-10-17T19:22:23.456Z,18.35
2022-10-17T19:24:51.673Z,18.35
2022-10-17T19:27:20.630Z,18.34
2022-10-17T19:29:48.913Z,18.34
2022-10-17T19:32:20.629Z,18.35
2022-10-17T19:34:51.005Z,18.34
2022-10-17T19:37:19.204Z,18.34
2022-10-17T19:39:49.220Z,18.33
2022-10-17T19:42:17.396Z,18.33
2022-10-17T19:44:45.850Z,18.34
2022-10-17T19:47:14.082Z,18.36
2022-10-17T19:49:45.372Z,18.36
2022-10-17T19:52:15.952Z,18.36
2022-10-17T19:54:44.173Z,18.32
2022-10-17T19:57:12.393Z,18.31
2022-10-17T19:59:40.584Z,18.31
2022-10-17T20:02:13.019Z,18.30
2022-10-17T20:04:49.675Z,18.28
2022-10-17T20:07:29.598Z,18.22
2022-10-17T20:09:57.851Z,18.18
2022-10-17T20:12:26.128Z,18.13
2022-10-17T20:14:54.324Z,18.08
2022-10-17T20:17:22.779Z,18.04
2022-10-17T20:19:51.175Z,18.05
2022-10-17T20:22:19.396Z,18.06
2022-10-17T20:24:47.633Z,18.06
2022-10-17T20:27:15.814Z,18.06
2022-10-17T20:29:44.004Z,18.04
2022-10-17T20:32:12.407Z,18.02
2022-10-17T20:34:40.930Z,17.99
2022-10-17T20:37:09.101Z,17.97
2022-10-17T20:39:37.326Z,17.94
2022-10-17T20:42:05.783Z,17.92
2022-10-17T20:44:34.057Z,17.89
2022-10-17T20:47:02.919Z,17.87
2022-10-17T20:49:32.589Z,17.83
2022-10-17T20:52:01.518Z,17.81
2022-10-17T20:54:30.069Z,17.80
2022-10-17T20:57:01.166Z,17.81
2022-10-17T20:59:35.196Z,17.84
2022-10-17T21:02:05.503Z,17.87
2022-10-17T21:04:46.017Z,17.92
2022-10-17T21:07:15.451Z,17.95
2022-10-17T21:09:43.790Z,17.97
2022-10-17T21:12:18.088Z,18.01
2022-10-17T21:14:54.467Z,18.04
2022-10-17T21:17:22.759Z,18.06
2022-10-17T21:19:51.100Z,18.05
2022-10-17T21:22:19.364Z,18.01
2022-10-17T21:24:47.571Z,17.99
2022-10-17T21:27:19.315Z,17.98
2022-10-17T21:29:48.553Z,17.97
2022-10-17T21:32:31.823Z,17.96
2022-10-17T21:35:05.628Z,17.94
2022-10-17T21:37:33.836Z,17.93
2022-10-17T21:40:02.045Z,17.93
2022-10-17T21:42:30.494Z,17.94
2022-10-17T21:44:59.067Z,17.95
2022-10-17T21:47:27.769Z,17.96
2022-10-17T21:49:56.131Z,17.95
2022-10-17T21:52:24.413Z,17.89
2022-10-17T21:54:52.692Z,17.85
2022-10-17T21:57:20.959Z,17.84
2022-10-17T21:59:49.125Z,17.82
2022-10-17T22:02:17.498Z,17.81
2022-10-17T22:04:45.706Z,17.81
2022-10-17T22:07:14.065Z,17.82
2022-10-17T22:09:42.245Z,17.80
2022-10-17T22:12:10.509Z,17.77
2022-10-17T22:14:38.834Z,17.72
2022-10-17T22:17:07.160Z,17.65
2022-10-17T22:19:35.356Z,17.58
2022-10-17T22:22:03.729Z,17.51
2022-10-17T22:24:32.002Z,17.44
2022-10-17T22:27:00.259Z,17.36
2022-10-17T22:29:28.545Z,17.30
2022-10-17T22:31:56.713Z,17.23
2022-10-17T22:34:25.157Z,17.15
2022-10-17T22:36:53.375Z,17.11
2022-10-17T22:39:21.579Z,17.07
2022-10-17T22:41:49.793Z,17.06
2022-10-17T22:44:18.046Z,17.04
2022-10-17T22:46:46.246Z,17.02
2022-10-17T22:49:14.566Z,16.99
2022-10-17T22:51:42.767Z,16.99
2022-10-17T22:54:11.011Z,16.99
2022-10-17T22:56:39.217Z,16.99
2022-10-17T22:59:07.526Z,17.00
2022-10-17T23:01:35.785Z,17.02
2022-10-17T23:04:04.376Z,17.04
2022-10-17T23:06:32.697Z,17.05
2022-10-17T23:09:00.967Z,17.04
2022-10-17T23:11:29.207Z,17.02
2022-10-17T23:13:57.419Z,16.99
2022-10-17T23:16:25.753Z,16.95
2022-10-17T23:18:53.936Z,16.91
2022-10-17T23:21:22.235Z,16.87
2022-10-17T23:23:50.422Z,16.83
2022-10-17T23:26:18.859Z,16.80
2022-10-17T23:28:47.195Z,16.75
2022-10-17T23:31:20.775Z,16.73
2022-10-17T23:33:49.889Z,16.70
2022-10-17T23:36:20.731Z,16.68
2022-10-17T23:38:50.190Z,16.66
2022-10-17T23:41:19.155Z,16.64
2022-10-17T23:43:47.374Z,16.62
2022-10-17T23:46:15.603Z,16.59
2022-10-17T23:48:43.799Z,16.57
2022-10-17T23:51:12.143Z,16.54
2022-10-17T23:53:41.108Z,16.53
2022-10-17T23:56:10.458Z,16.51
2022-10-17T23:58:39.337Z,16.50
